sensor_id;sensor_type;location;lat;lon;timestamp;pressure;altitude;pressure_sealevel;temperature;humidity
85023;BME280;75348;43.126;-2.538;2024-02-26T00:00:13;97911.56;;;7.91;100.00
85023;BME280;75348;43.126;-2.538;2024-02-26T00:02:41;97922.56;;;7.94;100.00
85023;BME280;75348;43.126;-2.538;2024-02-26T00:05:08;97927.66;;;7.81;100.00
85023;BME280;75348;43.126;-2.538;2024-02-26T00:07:35;97940.66;;;7.97;100.00
85023;BME280;75348;43.126;-2.538;2024-02-26T00:10:03;97939.16;;;8.09;100.00
85023;BME280;75348;43.126;-2.538;2024-02-26T00:12:30;97910.34;;;8.07;100.00
85023;BME280;75348;43.126;-2.538;2024-02-26T00:14:57;97932.34;;;8.29;100.00
85023;BME280;75348;43.126;-2.538;2024-02-26T00:17:25;97909.34;;;8.08;100.00
85023;BME280;75348;43.126;-2.538;2024-02-26T00:19:52;97915.06;;;8.26;100.00
85023;BME280;75348;43.126;-2.538;2024-02-26T00:22:20;97904.94;;;7.80;100.00
85023;BME280;75348;43.126;-2.538;2024-02-26T00:24:48;97927.13;;;7.86;100.00
85023;BME280;75348;43.126;-2.538;2024-02-26T00:27:15;97921.94;;;7.78;100.00
85023;BME280;75348;43.126;-2.538;2024-02-26T00:29:42;97923.81;;;7.98;100.00
85023;BME280;75348;43.126;-2.538;2024-02-26T00:32:09;97917.38;;;8.00;100.00
85023;BME280;75348;43.126;-2.538;2024-02-26T00:34:36;97962.09;;;8.23;100.00
85023;BME280;75348;43.126;-2.538;2024-02-26T00:37:03;97934.19;;;8.14;100.00
85023;BME280;75348;43.126;-2.538;2024-02-26T00:39:30;97958.38;;;8.32;100.00
85023;BME280;75348;43.126;-2.538;2024-02-26T00:41:57;97967.88;;;8.47;100.00
85023;BME280;75348;43.126;-2.538;2024-02-26T00:44:24;97935.50;;;8.39;100.00
85023;BME280;75348;43.126;-2.538;2024-02-26T00:46:51;97968.09;;;8.45;100.00
85023;BME280;75348;43.126;-2.538;2024-02-26T00:49:18;97940.44;;;8.27;100.00
85023;BME280;75348;43.126;-2.538;2024-02-26T00:51:45;97938.44;;;8.29;100.00
85023;BME280;75348;43.126;-2.538;2024-02-26T00:54:12;97932.59;;;8.34;100.00
85023;BME280;75348;43.126;-2.538;2024-02-26T00:56:40;97981.53;;;8.50;100.00
85023;BME280;75348;43.126;-2.538;2024-02-26T00:59:06;97963.28;;;8.35;100.00
85023;BME280;75348;43.126;-2.538;2024-02-26T01:01:33;98003.66;;;8.49;100.00
85023;BME280;75348;43.126;-2.538;2024-02-26T01:04:01;97970.72;;;8.45;100.00
85023;BME280;75348;43.126;-2.538;2024-02-26T01:06:30;97985.78;;;8.51;100.00
85023;BME280;75348;43.126;-2.538;2024-02-26T01:08:57;97989.53;;;8.57;100.00
85023;BME280;75348;43.126;-2.538;2024-02-26T01:11:24;98006.25;;;8.64;100.00
85023;BME280;75348;43.126;-2.538;2024-02-26T01:13:51;98010.13;;;8.82;100.00
85023;BME280;75348;43.126;-2.538;2024-02-26T01:16:23;98019.25;;;8.65;100.00
85023;BME280;75348;43.126;-2.538;2024-02-26T01:18:50;98000.28;;;8.55;100.00
85023;BME280;75348;43.126;-2.538;2024-02-26T01:21:18;97987.84;;;8.35;100.00
85023;BME280;75348;43.126;-2.538;2024-02-26T01:23:45;97972.13;;;8.27;100.00
85023;BME280;75348;43.126;-2.538;2024-02-26T01:26:12;97993.31;;;8.34;100.00
85023;BME280;75348;43.126;-2.538;2024-02-26T01:28:39;97980.22;;;8.26;100.00
85023;BME280;75348;43.126;-2.538;2024-02-26T01:31:06;97980.06;;;8.48;100.00
85023;BME280;75348;43.126;-2.538;2024-02-26T01:33:36;97988.84;;;8.34;100.00
85023;BME280;75348;43.126;-2.538;2024-02-26T01:36:03;98002.91;;;8.55;100.00
85023;BME280;75348;43.126;-2.538;2024-02-26T01:38:31;97985.72;;;8.45;100.00
85023;BME280;75348;43.126;-2.538;2024-02-26T01:40:58;97997.66;;;8.41;100.00
85023;BME280;75348;43.126;-2.538;2024-02-26T01:43:25;98006.28;;;8.49;100.00
85023;BME280;75348;43.126;-2.538;2024-02-26T01:45:52;97959.88;;;8.41;100.00
85023;BME280;75348;43.126;-2.538;2024-02-26T01:48:18;97992.59;;;8.60;100.00
85023;BME280;75348;43.126;-2.538;2024-02-26T01:50:46;98003.19;;;8.81;100.00
85023;BME280;75348;43.126;-2.538;2024-02-26T01:53:13;97987.84;;;8.70;100.00
85023;BME280;75348;43.126;-2.538;2024-02-26T01:55:41;97989.63;;;8.84;100.00
85023;BME280;75348;43.126;-2.538;2024-02-26T01:58:08;97967.13;;;8.88;100.00
85023;BME280;75348;43.126;-2.538;2024-02-26T02:00:36;97955.34;;;8.70;100.00
85023;BME280;75348;43.126;-2.538;2024-02-26T02:03:04;97991.81;;;8.81;100.00
85023;BME280;75348;43.126;-2.538;2024-02-26T02:05:32;97968.91;;;8.67;100.00
85023;BME280;75348;43.126;-2.538;2024-02-26T02:08:00;97983.72;;;8.82;100.00
85023;BME280;75348;43.126;-2.538;2024-02-26T02:10:27;97987.34;;;8.81;100.00
85023;BME280;75348;43.126;-2.538;2024-02-26T02:12:55;97998.41;;;8.91;100.00
85023;BME280;75348;43.126;-2.538;2024-02-26T02:15:22;97994.41;;;8.95;100.00
85023;BME280;75348;43.126;-2.538;2024-02-26T02:17:49;98004.97;;;8.95;100.00
85023;BME280;75348;43.126;-2.538;2024-02-26T02:20:17;98003.31;;;8.94;100.00
85023;BME280;75348;43.126;-2.538;2024-02-26T02:22:46;98005.59;;;8.97;100.00
85023;BME280;75348;43.126;-2.538;2024-02-26T02:25:13;97977.16;;;8.78;100.00
85023;BME280;75348;43.126;-2.538;2024-02-26T02:27:41;97977.91;;;8.72;100.00
85023;BME280;75348;43.126;-2.538;2024-02-26T02:30:10;97983.72;;;8.82;100.00
85023;BME280;75348;43.126;-2.538;2024-02-26T02:32:39;97998.16;;;8.86;100.00
85023;BME280;75348;43.126;-2.538;2024-02-26T02:35:07;98014.97;;;8.99;100.00
85023;BME280;75348;43.126;-2.538;2024-02-26T02:37:34;97967.22;;;8.80;99.80
85023;BME280;75348;43.126;-2.538;2024-02-26T02:40:01;98017.69;;;9.06;100.00
85023;BME280;75348;43.126;-2.538;2024-02-26T02:42:28;97984.22;;;8.92;100.00
85023;BME280;75348;43.126;-2.538;2024-02-26T02:44:55;98026.97;;;9.02;100.00
85023;BME280;75348;43.126;-2.538;2024-02-26T02:47:22;98021.44;;;8.97;100.00
85023;BME280;75348;43.126;-2.538;2024-02-26T02:49:49;98014.44;;;8.89;100.00
85023;BME280;75348;43.126;-2.538;2024-02-26T02:52:16;98041.66;;;9.04;100.00
85023;BME280;75348;43.126;-2.538;2024-02-26T02:54:43;98042.31;;;8.92;100.00
85023;BME280;75348;43.126;-2.538;2024-02-26T02:57:10;98065.78;;;9.01;100.00
85023;BME280;75348;43.126;-2.538;2024-02-26T02:59:37;98051.78;;;9.01;99.27
85023;BME280;75348;43.126;-2.538;2024-02-26T03:02:05;98024.69;;;8.99;98.66
85023;BME280;75348;43.126;-2.538;2024-02-26T03:04:33;98031.44;;;9.01;98.45
85023;BME280;75348;43.126;-2.538;2024-02-26T03:07:00;98052.28;;;8.90;99.63
85023;BME280;75348;43.126;-2.538;2024-02-26T03:09:27;98044.41;;;8.96;98.72
85023;BME280;75348;43.126;-2.538;2024-02-26T03:11:54;98031.38;;;8.95;97.59
85023;BME280;75348;43.126;-2.538;2024-02-26T03:14:21;98034.78;;;9.10;97.31
85023;BME280;75348;43.126;-2.538;2024-02-26T03:16:48;98049.06;;;8.94;98.85
85023;BME280;75348;43.126;-2.538;2024-02-26T03:19:16;98041.94;;;8.95;100.00
85023;BME280;75348;43.126;-2.538;2024-02-26T03:21:43;98029.97;;;8.78;99.64
85023;BME280;75348;43.126;-2.538;2024-02-26T03:24:10;98026.84;;;9.10;94.45
85023;BME280;75348;43.126;-2.538;2024-02-26T03:26:38;98030.03;;;9.20;94.41
85023;BME280;75348;43.126;-2.538;2024-02-26T03:29:05;98032.97;;;9.10;97.36
85023;BME280;75348;43.126;-2.538;2024-02-26T03:31:32;98037.16;;;9.05;96.89
85023;BME280;75348;43.126;-2.538;2024-02-26T03:33:59;98041.41;;;8.99;98.14
85023;BME280;75348;43.126;-2.538;2024-02-26T03:36:26;98007.47;;;8.61;99.35
85023;BME280;75348;43.126;-2.538;2024-02-26T03:38:53;98031.06;;;9.04;93.68
85023;BME280;75348;43.126;-2.538;2024-02-26T03:41:20;98025.47;;;8.93;93.42
85023;BME280;75348;43.126;-2.538;2024-02-26T03:43:47;98027.53;;;8.97;95.47
85023;BME280;75348;43.126;-2.538;2024-02-26T03:46:15;98029.25;;;9.05;93.73
85023;BME280;75348;43.126;-2.538;2024-02-26T03:48:42;98023.66;;;8.93;94.89
85023;BME280;75348;43.126;-2.538;2024-02-26T03:51:09;98026.97;;;8.81;97.42
85023;BME280;75348;43.126;-2.538;2024-02-26T03:53:39;97999.31;;;8.77;92.80
85023;BME280;75348;43.126;-2.538;2024-02-26T03:56:06;97985.19;;;8.70;95.36
85023;BME280;75348;43.126;-2.538;2024-02-26T03:58:33;97998.41;;;8.91;92.75
85023;BME280;75348;43.126;-2.538;2024-02-26T04:01:01;98010.75;;;9.05;90.90
85023;BME280;75348;43.126;-2.538;2024-02-26T04:03:28;98032.00;;;9.18;91.35
85023;BME280;75348;43.126;-2.538;2024-02-26T04:05:55;98027.88;;;9.09;93.02
85023;BME280;75348;43.126;-2.538;2024-02-26T04:08:22;98030.66;;;9.01;92.05
85023;BME280;75348;43.126;-2.538;2024-02-26T04:10:49;98025.03;;;9.10;90.61
85023;BME280;75348;43.126;-2.538;2024-02-26T04:13:17;98008.47;;;9.02;89.86
85023;BME280;75348;43.126;-2.538;2024-02-26T04:15:44;98030.53;;;9.09;91.65
85023;BME280;75348;43.126;-2.538;2024-02-26T04:18:13;98028.19;;;8.99;91.62
85023;BME280;75348;43.126;-2.538;2024-02-26T04:20:41;98029.13;;;8.92;92.04
85023;BME280;75348;43.126;-2.538;2024-02-26T04:23:09;98022.00;;;9.13;88.72
85023;BME280;75348;43.126;-2.538;2024-02-26T04:25:36;98025.53;;;8.99;89.71
85023;BME280;75348;43.126;-2.538;2024-02-26T04:28:03;98031.38;;;8.95;91.72
85023;BME280;75348;43.126;-2.538;2024-02-26T04:30:31;98033.34;;;9.07;89.46
85023;BME280;75348;43.126;-2.538;2024-02-26T04:32:58;98022.47;;;8.96;88.92
85023;BME280;75348;43.126;-2.538;2024-02-26T04:35:25;98005.97;;;8.94;87.86
85023;BME280;75348;43.126;-2.538;2024-02-26T04:37:52;97993.59;;;8.59;91.15
85023;BME280;75348;43.126;-2.538;2024-02-26T04:40:19;98009.97;;;8.69;89.24
85023;BME280;75348;43.126;-2.538;2024-02-26T04:42:46;98007.78;;;8.38;91.99
85023;BME280;75348;43.126;-2.538;2024-02-26T04:45:13;98001.94;;;8.42;86.51
85023;BME280;75348;43.126;-2.538;2024-02-26T04:47:40;98040.38;;;8.65;88.04
85023;BME280;75348;43.126;-2.538;2024-02-26T04:50:08;98015.59;;;8.02;93.55
85023;BME280;75348;43.126;-2.538;2024-02-26T04:52:36;98042.19;;;8.79;85.02
85023;BME280;75348;43.126;-2.538;2024-02-26T04:55:03;98045.81;;;8.43;91.03
85023;BME280;75348;43.126;-2.538;2024-02-26T04:57:30;98003.34;;;7.95;88.52
85023;BME280;75348;43.126;-2.538;2024-02-26T04:59:57;98051.81;;;8.23;89.12
85023;BME280;75348;43.126;-2.538;2024-02-26T05:02:24;98051.63;;;8.39;85.31
85023;BME280;75348;43.126;-2.538;2024-02-26T05:04:51;98044.41;;;8.04;90.02
85023;BME280;75348;43.126;-2.538;2024-02-26T05:07:18;98051.38;;;8.34;83.73
85023;BME280;75348;43.126;-2.538;2024-02-26T05:09:46;97999.94;;;7.87;88.36
85023;BME280;75348;43.126;-2.538;2024-02-26T05:12:16;98055.06;;;8.10;86.44
85023;BME280;75348;43.126;-2.538;2024-02-26T05:14:43;98062.78;;;7.83;89.42
85023;BME280;75348;43.126;-2.538;2024-02-26T05:17:10;98043.22;;;7.63;90.49
85023;BME280;75348;43.126;-2.538;2024-02-26T05:19:37;98062.59;;;7.70;89.17
85023;BME280;75348;43.126;-2.538;2024-02-26T05:22:04;98064.31;;;7.63;89.71
85023;BME280;75348;43.126;-2.538;2024-02-26T05:24:31;98070.41;;;7.64;89.42
85023;BME280;75348;43.126;-2.538;2024-02-26T05:26:59;98065.03;;;7.72;90.07
85023;BME280;75348;43.126;-2.538;2024-02-26T05:29:26;98051.94;;;7.64;89.75
85023;BME280;75348;43.126;-2.538;2024-02-26T05:31:53;98080.97;;;7.78;90.93
85023;BME280;75348;43.126;-2.538;2024-02-26T05:34:21;98081.78;;;7.79;88.59
85023;BME280;75348;43.126;-2.538;2024-02-26T05:36:49;98089.72;;;7.93;90.50
85023;BME280;75348;43.126;-2.538;2024-02-26T05:39:16;98087.25;;;8.06;88.86
85023;BME280;75348;43.126;-2.538;2024-02-26T05:41:46;98076.41;;;8.38;85.64
85023;BME280;75348;43.126;-2.538;2024-02-26T05:44:13;98090.91;;;8.05;90.64
85023;BME280;75348;43.126;-2.538;2024-02-26T05:46:41;98081.38;;;8.33;84.86
85023;BME280;75348;43.126;-2.538;2024-02-26T05:49:08;98080.31;;;8.42;86.58
85023;BME280;75348;43.126;-2.538;2024-02-26T05:51:36;98071.13;;;8.38;82.80
85023;BME280;75348;43.126;-2.538;2024-02-26T05:54:03;98061.47;;;8.30;86.50
85023;BME280;75348;43.126;-2.538;2024-02-26T05:56:30;98049.91;;;8.31;84.25
85023;BME280;75348;43.126;-2.538;2024-02-26T05:58:57;98065.94;;;8.30;86.34
85023;BME280;75348;43.126;-2.538;2024-02-26T06:01:24;98090.16;;;8.19;85.75
85023;BME280;75348;43.126;-2.538;2024-02-26T06:03:52;98089.31;;;8.18;88.67
85023;BME280;75348;43.126;-2.538;2024-02-26T06:06:19;98083.75;;;8.28;87.25
85023;BME280;75348;43.126;-2.538;2024-02-26T06:08:49;98072.38;;;8.56;83.55
85023;BME280;75348;43.126;-2.538;2024-02-26T06:11:16;98071.56;;;8.41;83.47
85023;BME280;75348;43.126;-2.538;2024-02-26T06:13:43;98077.78;;;8.83;80.15
85023;BME280;75348;43.126;-2.538;2024-02-26T06:16:10;98076.16;;;8.82;80.93
85023;BME280;75348;43.126;-2.538;2024-02-26T06:18:37;98078.16;;;8.66;82.22
85023;BME280;75348;43.126;-2.538;2024-02-26T06:21:04;98076.84;;;8.90;78.46
85023;BME280;75348;43.126;-2.538;2024-02-26T06:23:31;98104.50;;;8.59;83.99
85023;BME280;75348;43.126;-2.538;2024-02-26T06:25:58;98074.97;;;9.05;78.16
85023;BME280;75348;43.126;-2.538;2024-02-26T06:28:25;98068.06;;;9.04;78.80
85023;BME280;75348;43.126;-2.538;2024-02-26T06:30:52;98061.06;;;8.97;80.26
85023;BME280;75348;43.126;-2.538;2024-02-26T06:33:19;98056.38;;;8.78;77.63
85023;BME280;75348;43.126;-2.538;2024-02-26T06:35:46;98068.00;;;8.98;75.72
85023;BME280;75348;43.126;-2.538;2024-02-26T06:38:13;98045.00;;;8.78;77.91
85023;BME280;75348;43.126;-2.538;2024-02-26T06:40:40;98064.13;;;8.80;79.15
85023;BME280;75348;43.126;-2.538;2024-02-26T06:43:07;98064.13;;;8.80;78.17
85023;BME280;75348;43.126;-2.538;2024-02-26T06:45:35;98075.50;;;8.80;77.30
85023;BME280;75348;43.126;-2.538;2024-02-26T06:48:02;98042.63;;;8.83;75.11
85023;BME280;75348;43.126;-2.538;2024-02-26T06:50:29;98075.50;;;9.15;76.46
85023;BME280;75348;43.126;-2.538;2024-02-26T06:52:56;98073.50;;;8.82;76.89
85023;BME280;75348;43.126;-2.538;2024-02-26T06:55:23;98078.56;;;8.98;76.79
85023;BME280;75348;43.126;-2.538;2024-02-26T06:57:50;98077.28;;;8.94;76.47
85023;BME280;75348;43.126;-2.538;2024-02-26T07:00:17;98093.31;;;8.92;75.33
85023;BME280;75348;43.126;-2.538;2024-02-26T07:02:44;98053.59;;;8.65;76.19
85023;BME280;75348;43.126;-2.538;2024-02-26T07:05:11;98062.66;;;8.91;77.48
85023;BME280;75348;43.126;-2.538;2024-02-26T07:07:39;98094.53;;;8.90;77.38
85023;BME280;75348;43.126;-2.538;2024-02-26T07:10:07;98086.16;;;9.22;74.39
85023;BME280;75348;43.126;-2.538;2024-02-26T07:12:34;98087.84;;;8.94;78.21
85023;BME280;75348;43.126;-2.538;2024-02-26T07:15:01;98087.56;;;9.03;75.39
85023;BME280;75348;43.126;-2.538;2024-02-26T07:17:29;98083.41;;;8.94;77.50
85023;BME280;75348;43.126;-2.538;2024-02-26T07:19:56;98080.41;;;8.83;75.22
85023;BME280;75348;43.126;-2.538;2024-02-26T07:22:23;98073.28;;;8.63;77.41
85023;BME280;75348;43.126;-2.538;2024-02-26T07:24:51;98100.66;;;8.76;77.64
85023;BME280;75348;43.126;-2.538;2024-02-26T07:27:18;98090.19;;;8.68;80.72
85023;BME280;75348;43.126;-2.538;2024-02-26T07:29:45;98096.56;;;8.59;81.32
85023;BME280;75348;43.126;-2.538;2024-02-26T07:32:13;98092.69;;;8.55;81.24
85023;BME280;75348;43.126;-2.538;2024-02-26T07:34:40;98094.69;;;8.53;82.29
85023;BME280;75348;43.126;-2.538;2024-02-26T07:37:12;98091.38;;;8.51;83.99
85023;BME280;75348;43.126;-2.538;2024-02-26T07:39:39;98097.50;;;8.52;80.33
85023;BME280;75348;43.126;-2.538;2024-02-26T07:42:06;98089.00;;;8.56;80.21
85023;BME280;75348;43.126;-2.538;2024-02-26T07:44:33;98102.56;;;8.82;78.19
85023;BME280;75348;43.126;-2.538;2024-02-26T07:47:00;98054.97;;;8.61;78.94
85023;BME280;75348;43.126;-2.538;2024-02-26T07:49:27;98085.53;;;8.70;80.26
85023;BME280;75348;43.126;-2.538;2024-02-26T07:51:54;98087.81;;;8.73;79.98
85023;BME280;75348;43.126;-2.538;2024-02-26T07:54:24;98091.38;;;8.51;78.26
85023;BME280;75348;43.126;-2.538;2024-02-26T07:56:51;98095.91;;;8.72;77.89
85023;BME280;75348;43.126;-2.538;2024-02-26T07:59:19;98071.63;;;8.62;79.50
85023;BME280;75348;43.126;-2.538;2024-02-26T08:01:50;98081.38;;;8.61;83.99
85023;BME280;75348;43.126;-2.538;2024-02-26T08:04:24;98099.81;;;8.90;77.66
85023;BME280;75348;43.126;-2.538;2024-02-26T08:06:51;98105.81;;;8.98;78.69
85023;BME280;75348;43.126;-2.538;2024-02-26T08:09:19;98106.50;;;9.07;79.54
85023;BME280;75348;43.126;-2.538;2024-02-26T08:11:46;98101.03;;;9.08;77.34
85023;BME280;75348;43.126;-2.538;2024-02-26T08:14:13;98111.94;;;8.85;80.91
85023;BME280;75348;43.126;-2.538;2024-02-26T08:16:40;98107.41;;;9.14;75.69
85023;BME280;75348;43.126;-2.538;2024-02-26T08:19:07;98102.50;;;9.31;73.63
85023;BME280;75348;43.126;-2.538;2024-02-26T08:21:37;98085.22;;;9.29;73.44
85023;BME280;75348;43.126;-2.538;2024-02-26T08:24:04;98112.84;;;9.47;73.55
85023;BME280;75348;43.126;-2.538;2024-02-26T08:26:31;98109.44;;;9.32;77.74
85023;BME280;75348;43.126;-2.538;2024-02-26T08:28:58;98107.09;;;9.44;74.48
85023;BME280;75348;43.126;-2.538;2024-02-26T08:31:25;98110.44;;;9.52;73.20
85023;BME280;75348;43.126;-2.538;2024-02-26T08:33:53;98100.41;;;9.48;75.30
85023;BME280;75348;43.126;-2.538;2024-02-26T08:36:21;98104.28;;;9.45;78.72
85023;BME280;75348;43.126;-2.538;2024-02-26T08:38:48;98106.34;;;9.50;78.71
85023;BME280;75348;43.126;-2.538;2024-02-26T08:41:15;98110.19;;;9.47;76.50
85023;BME280;75348;43.126;-2.538;2024-02-26T08:43:42;98103.00;;;9.41;79.00
85023;BME280;75348;43.126;-2.538;2024-02-26T08:46:09;98096.72;;;9.63;72.60
85023;BME280;75348;43.126;-2.538;2024-02-26T08:48:37;98085.59;;;9.95;70.91
85023;BME280;75348;43.126;-2.538;2024-02-26T08:51:06;98092.25;;;10.12;71.59
85023;BME280;75348;43.126;-2.538;2024-02-26T08:53:35;98096.94;;;10.10;69.03
85023;BME280;75348;43.126;-2.538;2024-02-26T08:56:09;98071.38;;;9.96;70.67
85023;BME280;75348;43.126;-2.538;2024-02-26T08:58:38;98105.59;;;9.97;72.88
85023;BME280;75348;43.126;-2.538;2024-02-26T09:01:05;98091.56;;;10.30;68.92
85023;BME280;75348;43.126;-2.538;2024-02-26T09:03:32;98108.22;;;10.24;69.12
85023;BME280;75348;43.126;-2.538;2024-02-26T09:05:59;98106.91;;;10.14;69.73
85023;BME280;75348;43.126;-2.538;2024-02-26T09:08:26;98110.44;;;10.21;69.11
85023;BME280;75348;43.126;-2.538;2024-02-26T09:10:53;98100.00;;;10.13;71.03
85023;BME280;75348;43.126;-2.538;2024-02-26T09:13:20;98107.31;;;10.11;73.01
85023;BME280;75348;43.126;-2.538;2024-02-26T09:15:47;98095.28;;;10.09;72.58
85023;BME280;75348;43.126;-2.538;2024-02-26T09:18:14;98104.41;;;10.06;74.85
85023;BME280;75348;43.126;-2.538;2024-02-26T09:20:41;98098.88;;;10.01;75.92
85023;BME280;75348;43.126;-2.538;2024-02-26T09:23:09;98076.34;;;9.84;75.87
85023;BME280;75348;43.126;-2.538;2024-02-26T09:25:36;98079.41;;;9.88;75.15
85023;BME280;75348;43.126;-2.538;2024-02-26T09:28:03;98091.44;;;9.90;73.00
85023;BME280;75348;43.126;-2.538;2024-02-26T09:30:30;98090.16;;;9.80;78.51
85023;BME280;75348;43.126;-2.538;2024-02-26T09:32:57;98092.69;;;9.67;77.72
85023;BME280;75348;43.126;-2.538;2024-02-26T09:35:25;98065.66;;;9.51;77.19
85023;BME280;75348;43.126;-2.538;2024-02-26T09:37:53;98112.41;;;9.92;73.92
85023;BME280;75348;43.126;-2.538;2024-02-26T09:40:20;98103.13;;;9.96;74.12
85023;BME280;75348;43.126;-2.538;2024-02-26T09:42:51;98103.84;;;9.90;72.71
85023;BME280;75348;43.126;-2.538;2024-02-26T09:45:22;98113.09;;;9.94;73.48
85023;BME280;75348;43.126;-2.538;2024-02-26T09:47:51;98119.63;;;9.77;77.97
85023;BME280;75348;43.126;-2.538;2024-02-26T09:50:20;98127.19;;;9.59;76.95
85023;BME280;75348;43.126;-2.538;2024-02-26T09:52:51;98125.13;;;9.55;77.29
85023;BME280;75348;43.126;-2.538;2024-02-26T09:55:18;98124.53;;;9.38;78.05
85023;BME280;75348;43.126;-2.538;2024-02-26T09:57:46;98117.88;;;9.22;80.84
85023;BME280;75348;43.126;-2.538;2024-02-26T10:00:19;98126.78;;;9.21;83.58
85023;BME280;75348;43.126;-2.538;2024-02-26T10:02:47;98113.38;;;9.22;81.08
85023;BME280;75348;43.126;-2.538;2024-02-26T10:05:17;98082.88;;;9.20;84.42
85023;BME280;75348;43.126;-2.538;2024-02-26T10:07:47;98076.63;;;9.27;84.91
85023;BME280;75348;43.126;-2.538;2024-02-26T10:10:15;98112.41;;;9.44;85.07
85023;BME280;75348;43.126;-2.538;2024-02-26T10:12:43;98113.44;;;9.29;90.26
85023;BME280;75348;43.126;-2.538;2024-02-26T10:15:10;98112.06;;;9.12;86.31
85023;BME280;75348;43.126;-2.538;2024-02-26T10:17:38;98109.94;;;9.22;84.36
85023;BME280;75348;43.126;-2.538;2024-02-26T10:20:16;98131.16;;;9.28;87.88
85023;BME280;75348;43.126;-2.538;2024-02-26T10:22:55;98127.75;;;9.34;82.66
85023;BME280;75348;43.126;-2.538;2024-02-26T10:25:22;98123.72;;;9.38;82.65
85023;BME280;75348;43.126;-2.538;2024-02-26T10:27:49;98119.56;;;9.29;84.60
85023;BME280;75348;43.126;-2.538;2024-02-26T10:30:17;98137.56;;;9.40;80.82
85023;BME280;75348;43.126;-2.538;2024-02-26T10:32:51;98133.91;;;9.41;82.06
85023;BME280;75348;43.126;-2.538;2024-02-26T10:35:19;98143.69;;;9.40;85.54
85023;BME280;75348;43.126;-2.538;2024-02-26T10:37:50;98135.50;;;9.35;86.51
85023;BME280;75348;43.126;-2.538;2024-02-26T10:40:17;98135.50;;;9.35;79.98
85023;BME280;75348;43.126;-2.538;2024-02-26T10:42:44;98140.09;;;9.48;85.48
85023;BME280;75348;43.126;-2.538;2024-02-26T10:45:14;98140.94;;;9.48;81.23
85023;BME280;75348;43.126;-2.538;2024-02-26T10:47:42;98149.28;;;9.31;84.30
85023;BME280;75348;43.126;-2.538;2024-02-26T10:50:09;98148.13;;;9.19;83.51
85023;BME280;75348;43.126;-2.538;2024-02-26T10:52:36;98149.44;;;9.09;85.42
85023;BME280;75348;43.126;-2.538;2024-02-26T10:55:05;98162.28;;;9.12;84.50
85023;BME280;75348;43.126;-2.538;2024-02-26T10:57:38;98154.78;;;9.15;85.83
85023;BME280;75348;43.126;-2.538;2024-02-26T11:00:07;98162.47;;;9.10;86.14
85023;BME280;75348;43.126;-2.538;2024-02-26T11:02:38;98146.94;;;8.87;89.38
85023;BME280;75348;43.126;-2.538;2024-02-26T11:05:07;98160.19;;;9.07;91.04
85023;BME280;75348;43.126;-2.538;2024-02-26T11:07:34;98173.94;;;9.03;87.75
85023;BME280;75348;43.126;-2.538;2024-02-26T11:10:05;98176.34;;;8.84;90.76
85023;BME280;75348;43.126;-2.538;2024-02-26T11:12:34;98180.69;;;8.91;91.37
85023;BME280;75348;43.126;-2.538;2024-02-26T11:15:05;98195.91;;;8.89;89.54
85023;BME280;75348;43.126;-2.538;2024-02-26T11:17:33;98189.91;;;8.95;89.72
85023;BME280;75348;43.126;-2.538;2024-02-26T11:20:01;98193.06;;;9.05;92.35
85023;BME280;75348;43.126;-2.538;2024-02-26T11:22:32;98198.97;;;9.07;88.20
85023;BME280;75348;43.126;-2.538;2024-02-26T11:25:00;98196.16;;;9.08;86.03
85023;BME280;75348;43.126;-2.538;2024-02-26T11:27:31;98207.84;;;9.14;85.00
85023;BME280;75348;43.126;-2.538;2024-02-26T11:30:01;98199.75;;;9.01;87.37
85023;BME280;75348;43.126;-2.538;2024-02-26T11:32:29;98180.88;;;8.89;88.14
85023;BME280;75348;43.126;-2.538;2024-02-26T11:35:00;98181.25;;;9.01;86.71
85023;BME280;75348;43.126;-2.538;2024-02-26T11:37:27;98205.63;;;9.17;89.50
85023;BME280;75348;43.126;-2.538;2024-02-26T11:39:55;98210.56;;;9.06;85.26
85023;BME280;75348;43.126;-2.538;2024-02-26T11:42:24;98218.78;;;8.96;87.34
85023;BME280;75348;43.126;-2.538;2024-02-26T11:44:52;98220.63;;;8.96;86.07
85023;BME280;75348;43.126;-2.538;2024-02-26T11:47:21;98237.91;;;8.84;89.01
85023;BME280;75348;43.126;-2.538;2024-02-26T11:49:49;98241.44;;;8.62;86.73
85023;BME280;75348;43.126;-2.538;2024-02-26T11:52:16;98224.94;;;8.46;85.93
85023;BME280;75348;43.126;-2.538;2024-02-26T11:54:51;98215.34;;;8.31;88.07
85023;BME280;75348;43.126;-2.538;2024-02-26T11:57:28;98241.66;;;8.39;89.46
85023;BME280;75348;43.126;-2.538;2024-02-26T12:00:10;98215.78;;;8.20;88.75
85023;BME280;75348;43.126;-2.538;2024-02-26T12:05:20;98251.38;;;8.24;88.56
85023;BME280;75348;43.126;-2.538;2024-02-26T12:08:01;98254.09;;;8.16;91.18
85023;BME280;75348;43.126;-2.538;2024-02-26T12:10:38;98239.00;;;8.02;91.91
85023;BME280;75348;43.126;-2.538;2024-02-26T12:13:16;98232.25;;;7.77;94.18
85023;BME280;75348;43.126;-2.538;2024-02-26T12:15:55;98240.94;;;7.86;94.19
85023;BME280;75348;43.126;-2.538;2024-02-26T12:18:23;98235.06;;;7.76;94.16
85023;BME280;75348;43.126;-2.538;2024-02-26T12:21:11;98216.88;;;7.81;94.82
85023;BME280;75348;43.126;-2.538;2024-02-26T12:23:39;98203.97;;;7.71;95.54
85023;BME280;75348;43.126;-2.538;2024-02-26T12:26:06;98235.19;;;7.82;95.59
85023;BME280;75348;43.126;-2.538;2024-02-26T12:28:36;98225.41;;;7.68;96.15
85023;BME280;75348;43.126;-2.538;2024-02-26T12:31:04;98216.31;;;7.71;96.71
85023;BME280;75348;43.126;-2.538;2024-02-26T12:33:31;98204.97;;;7.70;95.42
85023;BME280;75348;43.126;-2.538;2024-02-26T12:35:58;98197.34;;;7.53;94.96
85023;BME280;75348;43.126;-2.538;2024-02-26T12:38:27;98213.69;;;7.71;95.19
85023;BME280;75348;43.126;-2.538;2024-02-26T12:40:54;98215.78;;;7.75;95.80
85023;BME280;75348;43.126;-2.538;2024-02-26T12:43:21;98225.34;;;7.76;93.85
85023;BME280;75348;43.126;-2.538;2024-02-26T12:45:48;98220.47;;;7.88;94.67
85023;BME280;75348;43.126;-2.538;2024-02-26T12:48:15;98230.97;;;7.96;95.43
85023;BME280;75348;43.126;-2.538;2024-02-26T12:50:46;98219.59;;;7.73;95.05
85023;BME280;75348;43.126;-2.538;2024-02-26T12:53:14;98204.25;;;7.76;95.12
85023;BME280;75348;43.126;-2.538;2024-02-26T12:55:42;98221.16;;;8.04;93.01
85023;BME280;75348;43.126;-2.538;2024-02-26T12:58:10;98236.34;;;8.02;94.86
85023;BME280;75348;43.126;-2.538;2024-02-26T13:00:38;98235.91;;;7.98;91.65
85023;BME280;75348;43.126;-2.538;2024-02-26T13:03:05;98214.69;;;7.92;92.32